sensor_id;sensor_type;location;lat;lon;timestamp;temperature;humidity
8979;DHT22;4524;51.364;5.448;2023-03-29T11:23:13;14.50;99.90
8979;DHT22;4524;51.364;5.448;2023-03-29T11:30:06;14.60;99.90
8979;DHT22;4524;51.364;5.448;2023-03-29T11:32:44;14.60;99.90
8979;DHT22;4524;51.364;5.448;2023-03-29T11:35:24;14.80;99.90
8979;DHT22;4524;51.364;5.448;2023-03-29T11:37:58;14.90;99.90
8979;DHT22;4524;51.364;5.448;2023-03-29T11:40:39;15.10;99.90
8979;DHT22;4524;51.364;5.448;2023-03-29T11:43:13;15.20;99.90
8979;DHT22;4524;51.364;5.448;2023-03-29T11:45:49;15.20;99.90
8979;DHT22;4524;51.364;5.448;2023-03-29T11:48:21;15.30;99.90
8979;DHT22;4524;51.364;5.448;2023-03-29T11:50:53;15.20;99.90
8979;DHT22;4524;51.364;5.448;2023-03-29T11:53:25;15.20;99.90
8979;DHT22;4524;51.364;5.448;2023-03-29T12:00:02;15.30;99.90
8979;DHT22;4524;51.364;5.448;2023-03-29T12:05:45;15.50;99.90
8979;DHT22;4524;51.364;5.448;2023-03-29T12:08:19;15.50;99.90
8979;DHT22;4524;51.364;5.448;2023-03-29T12:11:00;15.70;99.90
8979;DHT22;4524;51.364;5.448;2023-03-29T12:13:33;15.80;99.90
8979;DHT22;4524;51.364;5.448;2023-03-29T12:16:12;15.90;99.90
8979;DHT22;4524;51.364;5.448;2023-03-29T12:18:44;16.00;99.90
8979;DHT22;4524;51.364;5.448;2023-03-29T12:21:15;16.20;99.90
8979;DHT22;4524;51.364;5.448;2023-03-29T12:23:46;16.30;99.90
8979;DHT22;4524;51.364;5.448;2023-03-29T12:26:21;16.50;99.90
8979;DHT22;4524;51.364;5.448;2023-03-29T12:29:03;16.50;99.90
8979;DHT22;4524;51.364;5.448;2023-03-29T12:31:41;16.50;99.90
8979;DHT22;4524;51.364;5.448;2023-03-29T12:34:21;16.40;99.90
8979;DHT22;4524;51.364;5.448;2023-03-29T12:37:26;16.30;99.90
8979;DHT22;4524;51.364;5.448;2023-03-29T12:40:10;16.10;99.90
8979;DHT22;4524;51.364;5.448;2023-03-29T12:43:14;16.00;99.90
8979;DHT22;4524;51.364;5.448;2023-03-29T12:46:07;16.10;99.90
8979;DHT22;4524;51.364;5.448;2023-03-29T12:48:39;16.30;99.90
8979;DHT22;4524;51.364;5.448;2023-03-29T12:51:12;16.50;99.90
8979;DHT22;4524;51.364;5.448;2023-03-29T12:53:42;16.60;99.90
8979;DHT22;4524;51.364;5.448;2023-03-29T12:56:13;16.60;99.90
8979;DHT22;4524;51.364;5.448;2023-03-29T12:58:54;16.70;99.90
8979;DHT22;4524;51.364;5.448;2023-03-29T13:01:26;16.80;99.90
8979;DHT22;4524;51.364;5.448;2023-03-29T13:04:11;17.00;99.90
8979;DHT22;4524;51.364;5.448;2023-03-29T13:06:58;17.00;99.90
8979;DHT22;4524;51.364;5.448;2023-03-29T13:17:21;16.80;99.90
8979;DHT22;4524;51.364;5.448;2023-03-29T13:20:02;16.90;99.90
8979;DHT22;4524;51.364;5.448;2023-03-29T13:22:45;17.00;99.90
8979;DHT22;4524;51.364;5.448;2023-03-29T13:25:24;17.10;99.90
8979;DHT22;4524;51.364;5.448;2023-03-29T13:31:40;17.00;99.90
8979;DHT22;4524;51.364;5.448;2023-03-29T13:34:20;17.10;99.90
8979;DHT22;4524;51.364;5.448;2023-03-29T13:37:00;17.10;99.90
8979;DHT22;4524;51.364;5.448;2023-03-29T13:39:32;17.10;99.90
8979;DHT22;4524;51.364;5.448;2023-03-29T13:42:15;17.20;99.90
8979;DHT22;4524;51.364;5.448;2023-03-29T13:44:45;17.10;99.90
8979;DHT22;4524;51.364;5.448;2023-03-29T13:47:36;17.10;99.90
8979;DHT22;4524;51.364;5.448;2023-03-29T13:50:09;17.10;99.90
8979;DHT22;4524;51.364;5.448;2023-03-29T13:52:43;17.20;99.90
8979;DHT22;4524;51.364;5.448;2023-03-29T13:55:16;17.10;99.90
8979;DHT22;4524;51.364;5.448;2023-03-29T13:57:51;17.20;99.90
8979;DHT22;4524;51.364;5.448;2023-03-29T14:00:24;17.30;99.90
8979;DHT22;4524;51.364;5.448;2023-03-29T14:02:56;17.40;99.90
8979;DHT22;4524;51.364;5.448;2023-03-29T14:05:30;17.50;99.90
8979;DHT22;4524;51.364;5.448;2023-03-29T14:08:05;17.50;99.90
8979;DHT22;4524;51.364;5.448;2023-03-29T14:10:39;17.40;99.90
8979;DHT22;4524;51.364;5.448;2023-03-29T14:13:11;17.40;99.90
8979;DHT22;4524;51.364;5.448;2023-03-29T14:15:42;17.30;99.90
8979;DHT22;4524;51.364;5.448;2023-03-29T14:18:12;17.30;99.90
8979;DHT22;4524;51.364;5.448;2023-03-29T14:20:43;17.20;99.90
8979;DHT22;4524;51.364;5.448;2023-03-29T14:23:18;17.20;99.90
8979;DHT22;4524;51.364;5.448;2023-03-29T14:25:47;17.10;99.90
8979;DHT22;4524;51.364;5.448;2023-03-29T14:28:19;17.00;99.90
8979;DHT22;4524;51.364;5.448;2023-03-29T14:30:48;16.90;99.90
8979;DHT22;4524;51.364;5.448;2023-03-29T14:33:25;17.00;99.90
8979;DHT22;4524;51.364;5.448;2023-03-29T14:35:54;17.00;99.90
8979;DHT22;4524;51.364;5.448;2023-03-29T14:38:25;17.00;99.90
8979;DHT22;4524;51.364;5.448;2023-03-29T14:40:57;17.00;99.90
8979;DHT22;4524;51.364;5.448;2023-03-29T14:43:25;17.00;99.90
8979;DHT22;4524;51.364;5.448;2023-03-29T14:45:57;17.10;99.90
8979;DHT22;4524;51.364;5.448;2023-03-29T14:48:27;17.20;99.90
8979;DHT22;4524;51.364;5.448;2023-03-29T14:50:56;17.30;99.90
8979;DHT22;4524;51.364;5.448;2023-03-29T14:53:26;17.40;99.90
8979;DHT22;4524;51.364;5.448;2023-03-29T14:55:56;17.40;99.90
8979;DHT22;4524;51.364;5.448;2023-03-29T14:58:27;17.40;99.90
8979;DHT22;4524;51.364;5.448;2023-03-29T15:00:55;17.40;99.90
8979;DHT22;4524;51.364;5.448;2023-03-29T15:03:23;17.40;99.90
8979;DHT22;4524;51.364;5.448;2023-03-29T15:05:56;17.40;99.90
8979;DHT22;4524;51.364;5.448;2023-03-29T15:08:31;17.50;99.90
8979;DHT22;4524;51.364;5.448;2023-03-29T15:11:01;17.40;99.90
8979;DHT22;4524;51.364;5.448;2023-03-29T15:13:29;17.40;99.90
8979;DHT22;4524;51.364;5.448;2023-03-29T15:15:59;17.40;99.90
8979;DHT22;4524;51.364;5.448;2023-03-29T15:18:33;17.40;99.90
8979;DHT22;4524;51.364;5.448;2023-03-29T15:21:05;17.50;99.90
8979;DHT22;4524;51.364;5.448;2023-03-29T15:23:37;17.50;99.90
8979;DHT22;4524;51.364;5.448;2023-03-29T15:26:10;17.50;99.90
8979;DHT22;4524;51.364;5.448;2023-03-29T15:28:47;17.50;99.90
8979;DHT22;4524;51.364;5.448;2023-03-29T15:31:17;17.40;99.90
8979;DHT22;4524;51.364;5.448;2023-03-29T15:33:46;17.20;99.90
8979;DHT22;4524;51.364;5.448;2023-03-29T15:36:14;17.10;99.90
8979;DHT22;4524;51.364;5.448;2023-03-29T15:38:47;17.00;99.90
8979;DHT22;4524;51.364;5.448;2023-03-29T15:41:15;17.10;99.90
8979;DHT22;4524;51.364;5.448;2023-03-29T15:43:44;17.10;99.90
8979;DHT22;4524;51.364;5.448;2023-03-29T15:46:12;17.10;99.90
8979;DHT22;4524;51.364;5.448;2023-03-29T15:48:41;17.00;99.90
8979;DHT22;4524;51.364;5.448;2023-03-29T15:51:09;16.90;99.90
8979;DHT22;4524;51.364;5.448;2023-03-29T15:53:38;16.90;99.90
8979;DHT22;4524;51.364;5.448;2023-03-29T15:56:12;16.80;99.90
8979;DHT22;4524;51.364;5.448;2023-03-29T15:58:42;16.70;99.90
8979;DHT22;4524;51.364;5.448;2023-03-29T16:01:18;16.70;99.90
8979;DHT22;4524;51.364;5.448;2023-03-29T16:03:49;16.70;99.90
8979;DHT22;4524;51.364;5.448;2023-03-29T16:06:17;16.70;99.90
8979;DHT22;4524;51.364;5.448;2023-03-29T16:08:47;16.60;99.90
8979;DHT22;4524;51.364;5.448;2023-03-29T16:11:17;16.60;99.90
8979;DHT22;4524;51.364;5.448;2023-03-29T16:13:45;16.60;99.90
8979;DHT22;4524;51.364;5.448;2023-03-29T16:16:13;16.50;99.90
8979;DHT22;4524;51.364;5.448;2023-03-29T16:18:41;16.50;99.90
8979;DHT22;4524;51.364;5.448;2023-03-29T16:21:12;16.60;99.90
8979;DHT22;4524;51.364;5.448;2023-03-29T16:23:40;16.50;99.90
8979;DHT22;4524;51.364;5.448;2023-03-29T16:26:10;16.50;99.90
8979;DHT22;4524;51.364;5.448;2023-03-29T16:28:40;16.50;99.90
8979;DHT22;4524;51.364;5.448;2023-03-29T16:31:09;16.50;99.90
8979;DHT22;4524;51.364;5.448;2023-03-29T16:33:37;16.50;99.90
8979;DHT22;4524;51.364;5.448;2023-03-29T16:36:06;16.50;99.90
8979;DHT22;4524;51.364;5.448;2023-03-29T16:38:34;16.50;99.90
8979;DHT22;4524;51.364;5.448;2023-03-29T16:41:03;16.50;99.90
8979;DHT22;4524;51.364;5.448;2023-03-29T16:43:31;16.40;99.90
8979;DHT22;4524;51.364;5.448;2023-03-29T16:46:00;16.40;99.90
8979;DHT22;4524;51.364;5.448;2023-03-29T16:48:29;16.40;99.90
8979;DHT22;4524;51.364;5.448;2023-03-29T16:50:57;16.30;99.90
8979;DHT22;4524;51.364;5.448;2023-03-29T16:53:25;16.30;99.90
8979;DHT22;4524;51.364;5.448;2023-03-29T16:55:54;16.30;99.90
8979;DHT22;4524;51.364;5.448;2023-03-29T16:58:22;16.30;99.90
8979;DHT22;4524;51.364;5.448;2023-03-29T17:00:50;16.30;99.90
8979;DHT22;4524;51.364;5.448;2023-03-29T17:03:22;16.20;99.90
8979;DHT22;4524;51.364;5.448;2023-03-29T17:05:51;16.20;99.90
8979;DHT22;4524;51.364;5.448;2023-03-29T17:08:20;16.20;99.90
8979;DHT22;4524;51.364;5.448;2023-03-29T17:10:51;16.20;99.90
8979;DHT22;4524;51.364;5.448;2023-03-29T17:13:19;16.20;99.90
8979;DHT22;4524;51.364;5.448;2023-03-29T17:15:50;16.10;99.90
8979;DHT22;4524;51.364;5.448;2023-03-29T17:18:21;16.10;99.90
8979;DHT22;4524;51.364;5.448;2023-03-29T17:20:53;16.00;99.90
8979;DHT22;4524;51.364;5.448;2023-03-29T17:23:22;16.00;99.90
8979;DHT22;4524;51.364;5.448;2023-03-29T17:25:50;16.00;99.90
8979;DHT22;4524;51.364;5.448;2023-03-29T17:28:20;15.90;99.90
8979;DHT22;4524;51.364;5.448;2023-03-29T17:30:48;15.90;99.90
8979;DHT22;4524;51.364;5.448;2023-03-29T17:33:16;15.90;99.90
8979;DHT22;4524;51.364;5.448;2023-03-29T17:35:49;15.90;99.90
8979;DHT22;4524;51.364;5.448;2023-03-29T17:38:18;15.80;99.90
8979;DHT22;4524;51.364;5.448;2023-03-29T17:40:51;15.80;99.90
8979;DHT22;4524;51.364;5.448;2023-03-29T17:43:19;15.70;99.90
8979;DHT22;4524;51.364;5.448;2023-03-29T17:45:49;15.70;99.90
8979;DHT22;4524;51.364;5.448;2023-03-29T17:48:18;15.70;99.90
8979;DHT22;4524;51.364;5.448;2023-03-29T17:51:06;15.60;99.90
8979;DHT22;4524;51.364;5.448;2023-03-29T17:53:34;15.60;99.90
8979;DHT22;4524;51.364;5.448;2023-03-29T17:56:02;15.50;99.90
8979;DHT22;4524;51.364;5.448;2023-03-29T17:58:30;15.50;99.90
8979;DHT22;4524;51.364;5.448;2023-03-29T18:00:58;15.50;99.90
8979;DHT22;4524;51.364;5.448;2023-03-29T18:03:26;15.50;99.90
8979;DHT22;4524;51.364;5.448;2023-03-29T18:05:54;15.40;99.90
8979;DHT22;4524;51.364;5.448;2023-03-29T18:08:23;15.40;99.90
8979;DHT22;4524;51.364;5.448;2023-03-29T18:10:51;15.40;99.90
8979;DHT22;4524;51.364;5.448;2023-03-29T18:13:19;15.40;99.90
8979;DHT22;4524;51.364;5.448;2023-03-29T18:15:53;15.30;99.90
8979;DHT22;4524;51.364;5.448;2023-03-29T18:18:22;15.30;99.90
8979;DHT22;4524;51.364;5.448;2023-03-29T18:20:50;15.20;99.90
8979;DHT22;4524;51.364;5.448;2023-03-29T18:23:18;15.20;99.90
8979;DHT22;4524;51.364;5.448;2023-03-29T18:25:47;15.20;99.90
8979;DHT22;4524;51.364;5.448;2023-03-29T18:28:15;15.20;99.90
8979;DHT22;4524;51.364;5.448;2023-03-29T18:30:43;15.10;99.90
8979;DHT22;4524;51.364;5.448;2023-03-29T18:33:11;15.10;99.90
8979;DHT22;4524;51.364;5.448;2023-03-29T18:35:39;15.10;99.90
8979;DHT22;4524;51.364;5.448;2023-03-29T18:38:07;15.10;99.90
8979;DHT22;4524;51.364;5.448;2023-03-29T18:40:36;15.00;99.90
8979;DHT22;4524;51.364;5.448;2023-03-29T18:43:06;15.00;99.90
8979;DHT22;4524;51.364;5.448;2023-03-29T18:45:34;15.00;99.90
8979;DHT22;4524;51.364;5.448;2023-03-29T18:48:02;14.90;99.90
8979;DHT22;4524;51.364;5.448;2023-03-29T18:50:31;14.90;99.90
8979;DHT22;4524;51.364;5.448;2023-03-29T18:52:59;14.90;99.90
8979;DHT22;4524;51.364;5.448;2023-03-29T18:55:28;14.90;99.90
8979;DHT22;4524;51.364;5.448;2023-03-29T18:57:56;14.80;99.90
8979;DHT22;4524;51.364;5.448;2023-03-29T19:00:25;14.80;99.90
8979;DHT22;4524;51.364;5.448;2023-03-29T19:02:53;14.80;99.90
8979;DHT22;4524;51.364;5.448;2023-03-29T19:05:21;14.80;99.90
8979;DHT22;4524;51.364;5.448;2023-03-29T19:07:49;14.70;99.90
8979;DHT22;4524;51.364;5.448;2023-03-29T19:10:29;14.60;99.90
8979;DHT22;4524;51.364;5.448;2023-03-29T19:12:59;14.60;99.90
8979;DHT22;4524;51.364;5.448;2023-03-29T19:15:29;14.60;99.90
8979;DHT22;4524;51.364;5.448;2023-03-29T19:17:57;14.60;99.90
8979;DHT22;4524;51.364;5.448;2023-03-29T19:20:25;14.60;99.90
8979;DHT22;4524;51.364;5.448;2023-03-29T19:22:53;14.60;99.90
8979;DHT22;4524;51.364;5.448;2023-03-29T19:25:21;14.50;99.90
8979;DHT22;4524;51.364;5.448;2023-03-29T19:27:49;14.50;99.90
8979;DHT22;4524;51.364;5.448;2023-03-29T19:30:17;14.50;99.90
8979;DHT22;4524;51.364;5.448;2023-03-29T19:32:47;14.50;99.90
8979;DHT22;4524;51.364;5.448;2023-03-29T19:35:15;14.50;99.90
8979;DHT22;4524;51.364;5.448;2023-03-29T19:37:43;14.50;99.90
8979;DHT22;4524;51.364;5.448;2023-03-29T19:40:11;14.40;99.90
8979;DHT22;4524;51.364;5.448;2023-03-29T19:42:40;14.40;99.90
8979;DHT22;4524;51.364;5.448;2023-03-29T19:45:09;14.40;99.90
8979;DHT22;4524;51.364;5.448;2023-03-29T19:47:37;14.40;99.90
8979;DHT22;4524;51.364;5.448;2023-03-29T19:50:08;14.40;99.90
8979;DHT22;4524;51.364;5.448;2023-03-29T19:52:38;14.40;99.90
8979;DHT22;4524;51.364;5.448;2023-03-29T19:55:07;14.30;99.90
8979;DHT22;4524;51.364;5.448;2023-03-29T19:57:36;14.30;99.90
8979;DHT22;4524;51.364;5.448;2023-03-29T20:00:05;14.40;99.90
8979;DHT22;4524;51.364;5.448;2023-03-29T20:02:38;14.30;99.90
8979;DHT22;4524;51.364;5.448;2023-03-29T20:05:08;14.30;99.90
8979;DHT22;4524;51.364;5.448;2023-03-29T20:07:38;14.30;99.90
8979;DHT22;4524;51.364;5.448;2023-03-29T20:10:06;14.30;99.90
8979;DHT22;4524;51.364;5.448;2023-03-29T20:12:35;14.20;99.90
8979;DHT22;4524;51.364;5.448;2023-03-29T20:15:04;14.20;99.90
8979;DHT22;4524;51.364;5.448;2023-03-29T20:17:32;14.20;99.90
8979;DHT22;4524;51.364;5.448;2023-03-29T20:20:01;14.20;99.90
8979;DHT22;4524;51.364;5.448;2023-03-29T20:22:35;14.20;99.90
8979;DHT22;4524;51.364;5.448;2023-03-29T20:25:04;14.20;99.90
8979;DHT22;4524;51.364;5.448;2023-03-29T20:27:32;14.10;99.90
8979;DHT22;4524;51.364;5.448;2023-03-29T20:30:19;14.10;99.90
8979;DHT22;4524;51.364;5.448;2023-03-29T20:32:47;14.10;99.90
8979;DHT22;4524;51.364;5.448;2023-03-29T20:35:15;14.10;99.90
8979;DHT22;4524;51.364;5.448;2023-03-29T20:37:45;14.00;99.90
8979;DHT22;4524;51.364;5.448;2023-03-29T20:40:13;14.00;99.90
8979;DHT22;4524;51.364;5.448;2023-03-29T20:42:41;14.00;99.90
8979;DHT22;4524;51.364;5.448;2023-03-29T20:45:11;14.00;99.90
8979;DHT22;4524;51.364;5.448;2023-03-29T20:47:44;14.00;99.90
8979;DHT22;4524;51.364;5.448;2023-03-29T20:50:17;14.00;99.90
8979;DHT22;4524;51.364;5.448;2023-03-29T20:52:47;14.00;99.90
8979;DHT22;4524;51.364;5.448;2023-03-29T20:55:15;13.90;99.90
8979;DHT22;4524;51.364;5.448;2023-03-29T20:57:48;13.90;99.90
8979;DHT22;4524;51.364;5.448;2023-03-29T21:00:17;13.90;99.90
8979;DHT22;4524;51.364;5.448;2023-03-29T21:02:46;13.90;99.90
8979;DHT22;4524;51.364;5.448;2023-03-29T21:05:14;13.90;99.90
8979;DHT22;4524;51.364;5.448;2023-03-29T21:07:42;13.90;99.90
8979;DHT22;4524;51.364;5.448;2023-03-29T21:10:15;13.80;99.90
8979;DHT22;4524;51.364;5.448;2023-03-29T21:12:43;13.80;99.90
8979;DHT22;4524;51.364;5.448;2023-03-29T21:15:11;13.80;99.90
8979;DHT22;4524;51.364;5.448;2023-03-29T21:17:40;13.90;99.90
8979;DHT22;4524;51.364;5.448;2023-03-29T21:20:08;13.90;99.90
8979;DHT22;4524;51.364;5.448;2023-03-29T21:22:38;13.90;99.90
8979;DHT22;4524;51.364;5.448;2023-03-29T21:25:07;13.80;99.90
8979;DHT22;4524;51.364;5.448;2023-03-29T21:27:37;13.80;99.90
8979;DHT22;4524;51.364;5.448;2023-03-29T21:30:06;13.80;99.90
8979;DHT22;4524;51.364;5.448;2023-03-29T21:32:35;13.80;99.90
8979;DHT22;4524;51.364;5.448;2023-03-29T21:35:03;13.80;99.90
8979;DHT22;4524;51.364;5.448;2023-03-29T21:37:32;13.70;99.90
8979;DHT22;4524;51.364;5.448;2023-03-29T21:40:00;13.70;99.90
8979;DHT22;4524;51.364;5.448;2023-03-29T21:42:31;13.70;99.90
8979;DHT22;4524;51.364;5.448;2023-03-29T21:45:00;13.70;99.90
8979;DHT22;4524;51.364;5.448;2023-03-29T21:47:29;13.60;99.90
8979;DHT22;4524;51.364;5.448;2023-03-29T21:49:57;13.60;99.90
8979;DHT22;4524;51.364;5.448;2023-03-29T21:52:25;13.60;99.90
8979;DHT22;4524;51.364;5.448;2023-03-29T21:54:53;13.60;99.90
8979;DHT22;4524;51.364;5.448;2023-03-29T21:57:21;13.60;99.90
8979;DHT22;4524;51.364;5.448;2023-03-29T21:59:49;13.60;99.90
8979;DHT22;4524;51.364;5.448;2023-03-29T22:02:18;13.70;99.90
8979;DHT22;4524;51.364;5.448;2023-03-29T22:04:46;13.70;99.90
8979;DHT22;4524;51.364;5.448;2023-03-29T22:07:14;13.60;99.90
8979;DHT22;4524;51.364;5.448;2023-03-29T22:09:43;13.60;99.90
8979;DHT22;4524;51.364;5.448;2023-03-29T22:12:31;13.60;99.90
8979;DHT22;4524;51.364;5.448;2023-03-29T22:15:00;13.60;99.90
8979;DHT22;4524;51.364;5.448;2023-03-29T22:17:29;13.70;99.90
8979;DHT22;4524;51.364;5.448;2023-03-29T22:19:58;13.60;99.90
8979;DHT22;4524;51.364;5.448;2023-03-29T22:22:26;13.60;99.90
8979;DHT22;4524;51.364;5.448;2023-03-29T22:24:54;13.50;99.90
8979;DHT22;4524;51.364;5.448;2023-03-29T22:27:22;13.50;99.90
8979;DHT22;4524;51.364;5.448;2023-03-29T22:29:50;13.50;99.90
8979;DHT22;4524;51.364;5.448;2023-03-29T22:32:18;13.50;99.90
8979;DHT22;4524;51.364;5.448;2023-03-29T22:34:47;13.50;99.90
8979;DHT22;4524;51.364;5.448;2023-03-29T22:37:15;13.50;99.90
8979;DHT22;4524;51.364;5.448;2023-03-29T22:39:43;13.50;99.90
8979;DHT22;4524;51.364;5.448;2023-03-29T22:42:12;13.50;99.90
8979;DHT22;4524;51.364;5.448;2023-03-29T22:44:40;13.50;99.90
8979;DHT22;4524;51.364;5.448;2023-03-29T22:47:08;13.50;99.90
8979;DHT22;4524;51.364;5.448;2023-03-29T22:49:36;13.50;99.90
8979;DHT22;4524;51.364;5.448;2023-03-29T22:52:05;13.60;99.90
8979;DHT22;4524;51.364;5.448;2023-03-29T22:54:33;13.60;99.90
8979;DHT22;4524;51.364;5.448;2023-03-29T22:57:01;13.60;99.90
8979;DHT22;4524;51.364;5.448;2023-03-29T22:59:29;13.70;99.90
8979;DHT22;4524;51.364;5.448;2023-03-29T23:01:57;13.70;99.90
8979;DHT22;4524;51.364;5.448;2023-03-29T23:04:25;13.70;99.90
8979;DHT22;4524;51.364;5.448;2023-03-29T23:06:53;13.70;99.90
8979;DHT22;4524;51.364;5.448;2023-03-29T23:09:23;13.70;99.90
8979;DHT22;4524;51.364;5.448;2023-03-29T23:11:51;13.80;99.90
8979;DHT22;4524;51.364;5.448;2023-03-29T23:14:19;13.80;99.90
8979;DHT22;4524;51.364;5.448;2023-03-29T23:16:48;13.80;99.90
8979;DHT22;4524;51.364;5.448;2023-03-29T23:19:16;13.80;99.90
8979;DHT22;4524;51.364;5.448;2023-03-29T23:21:44;13.70;99.90
8979;DHT22;4524;51.364;5.448;2023-03-29T23:24:12;13.80;99.90
8979;DHT22;4524;51.364;5.448;2023-03-29T23:26:46;13.80;99.90
8979;DHT22;4524;51.364;5.448;2023-03-29T23:29:14;13.80;99.90
8979;DHT22;4524;51.364;5.448;2023-03-29T23:31:42;13.80;99.90
8979;DHT22;4524;51.364;5.448;2023-03-29T23:34:11;13.80;99.90
8979;DHT22;4524;51.364;5.448;2023-03-29T23:36:39;13.90;99.90
8979;DHT22;4524;51.364;5.448;2023-03-29T23:39:07;14.00;99.90
8979;DHT22;4524;51.364;5.448;2023-03-29T23:41:35;14.10;99.90
8979;DHT22;4524;51.364;5.448;2023-03-29T23:44:07;14.20;99.90
8979;DHT22;4524;51.364;5.448;2023-03-29T23:46:35;14.20;99.90
8979;DHT22;4524;51.364;5.448;2023-03-29T23:49:03;14.20;99.90
8979;DHT22;4524;51.364;5.448;2023-03-29T23:51:30;14.20;99.90
8979;DHT22;4524;51.364;5.448;2023-03-29T23:54:01;14.20;99.90
8979;DHT22;4524;51.364;5.448;2023-03-29T23:56:29;14.10;99.90
8979;DHT22;4524;51.364;5.448;2023-03-29T23:58:56;14.10;99.90
